アムステルダム/スキポール の空港の天気 - METARとTAF

スキポール空港(アムステルダム) ( EHAM / AMS ) - オランダ アムステルダム
飛行場実況気象(Metar)
観測時間02/20 15:55 CET (02/20 14:55 UTC)
風向・風速西南西 9m/s
視程7000m
天気現象
少しの雲 雲底高度 120m
全天の8割程度の雲 雲底高度 150m
気温11℃
湿度87%
気圧1013hPa
METAREHAM 201455Z 24017KT 210V270 7000 FEW004 BKN005 11/09 Q1013 TEMPO 2500 SCT003 BKN004
過去の天気等 Google飛行場航空写真 Wunderground天気予報

過去48時間のMETAR

飛行場予報(TAF)
発表時間: 2/20 11:52 CET (2/20 10:52 UTC)
予報対象時間: 20日13時 CET ~ 21日19時 CET
風向・風速西南西 8m/s
視程4,000m
天気現象もや
全天の8割程度の雲 雲底高度 180m
20日13時 CET ~ 20日15時 CET に 確率 40% で一時的に
視程2,000m
天気現象霧雨
全天の8割程度の雲 雲底高度 120m
20日15時 CET ~ 20日18時 CET に徐々に
視程6,000m
天気現象運行に影響にある天気現象が終了
全天の8割程度の雲 雲底高度 610m
20日18時 CET ~ 20日22時 CET に 確率 40% で一時的に
視程4,000m
天気現象弱い雨霧雨
全天の8割程度の雲 雲底高度 370m
20日20時 CET ~ 20日23時 CET に徐々に
風向・風速西北西 7m/s
視程10km以上
天気現象運行に影響にある天気現象が終了
21日15時 CET ~ 21日18時 CET に徐々に
風向・風速南南西 4m/s
TAF EHAM 201052Z 2012/2118 25015KT 4000 BR BKN006
PROB40 TEMPO 2012/2014 2000 DZ BKN004
BECMG 2014/2017 6000 NSW BKN020
PROB40 TEMPO 2017/2021 4000 -RADZ BKN012
BECMG 2019/2022 29013KT 9999 NSW
BECMG 2114/2117 20008KT